Briefing drone pour Pineuilh

Rechercher une autre localisation

Conditions de vol :


Nous sommes le : Lundi 27 septembre 2021
Il est 21:56 UTC (23:56 LT)

Lever de soleil : 05:25 UTC (07:25 LT)
Coucher de soleil : 18:14 UTC (20:14 LT)

Météo

L'essentiel des conditions de vol

VIGILANCE MÉTÉO FRANCE - Gironde (33)
Pas de vigilances particulieres
METAR de LFBE
LFBE 272130Z AUTO 07003KT CAVOK 11/10 Q1025

Date d'émission: 27/09/2021
Heure d'émission: 21:30 UTC
Vent: 070° pour 3 KT (6 km/h)
Visibilité horizontale: > 10 km
Plafond : Plafond et visibilité OK (CAVOK)
Température: 11 °C
Point de rosée: 10 °C
Humidité: 94%
Pression (QNH): 1025 hPa
TAF de LFBE
AMD AMD LFBE 272000Z 2720/2812 CNL

Conditions prévues :

Heure d'émission : Bulletin éffectué le 27 à 20:00 UTC
Prévision : Valide du 27 a 20:00 UTC au 28 a 12:00 UTC
Nuages : à 0ft (0 m)
WEBCAM POUR PINEUILH

Réglementation

Voler en sécurité

CARTES AERONAUTIQUE 1/500.000
CARTES VAC (LFBE)
SUP AIP




Chargement des AIP...
NOTAM (PINEUILH + Terrain à proximité / FIR )




Chargement des NOTAMS...
CONTACT PREFECTURE 33


Avertissement : Les données mises à disposition sont indicatives. Oxygène Drone ne pourra être tenu responsable de dégâts causés aux biens et aux personnes.